St Thomas, Virgin Islands
Current Conditions -  °F | °C
As of 2:53 PM on Thursday 27 Nov 2014 (Local Time) from TJNR Reporting Station
Clear Clear  
Wind Chill: 83°   Ceiling: Unl
Heat Index: 86°   Visibility: 10mi
Dew Point: 69°   Wind: 6mph
Humidity: 63%   Direction: 80°E
Pressure: 29.95"   Gusts: NA
Location:  18.3436°N, 64.9322°W
Report Text: TJNR 271853Z AUTO 08005KT 10SM CLR 28/21 A2995 RMK AO2 SLP142 T02830206 $
Loading
Personal Weather Stations






























Interactive Weather Map New forecast layout! Learn more

10-Day Weather Forecast

Advertisements
Track Severe Weather on mobile